createdAt,value
2023-03-10T00:00:39.945Z,6.00
2023-03-10T00:03:07.662Z,6.00
2023-03-10T00:05:35.476Z,6.00
2023-03-10T00:08:02.956Z,5.90
2023-03-10T00:10:30.727Z,5.90
2023-03-10T00:12:58.825Z,5.80
2023-03-10T00:15:26.393Z,5.80
2023-03-10T00:17:56.376Z,5.70
2023-03-10T00:20:24.140Z,5.80
2023-03-10T00:22:51.714Z,5.70
2023-03-10T00:25:20.224Z,5.80
2023-03-10T00:27:47.536Z,5.90
2023-03-10T00:30:15.486Z,5.80
2023-03-10T00:32:43.022Z,5.90
2023-03-10T00:35:10.318Z,5.90
2023-03-10T00:37:40.914Z,5.90
2023-03-10T00:40:15.638Z,6.00
2023-03-10T00:42:43.307Z,6.00
2023-03-10T00:45:11.110Z,6.10
2023-03-10T00:47:38.401Z,6.10
2023-03-10T00:50:06.173Z,6.20
2023-03-10T00:52:34.381Z,6.20
2023-03-10T00:55:01.905Z,6.30
2023-03-10T00:57:29.782Z,6.40
2023-03-10T00:59:57.440Z,6.50
2023-03-10T01:02:24.708Z,6.70
2023-03-10T01:04:52.589Z,6.80
2023-03-10T01:07:20.192Z,6.80
2023-03-10T01:09:47.671Z,6.90
2023-03-10T01:12:15.050Z,6.90
2023-03-10T01:14:42.417Z,6.90
2023-03-10T01:17:11.082Z,6.80
2023-03-10T01:19:38.319Z,6.70
2023-03-10T01:22:05.668Z,6.70
2023-03-10T01:24:33.067Z,6.70
2023-03-10T01:27:00.352Z,6.70
2023-03-10T01:29:27.708Z,6.80
2023-03-10T01:31:55.241Z,6.80
2023-03-10T01:37:06.838Z,6.90
2023-03-10T01:39:34.083Z,7.00
2023-03-10T01:42:01.753Z,6.90
2023-03-10T01:44:29.106Z,6.90
2023-03-10T01:46:57.058Z,6.90
2023-03-10T01:49:41.149Z,6.70
2023-03-10T01:52:16.788Z,6.60
2023-03-10T01:55:12.863Z,6.60
2023-03-10T01:57:46.597Z,6.70
2023-03-10T02:00:15.254Z,6.80
2023-03-10T02:03:11.955Z,6.90
2023-03-10T02:06:06.910Z,7.00
2023-03-10T02:08:44.171Z,7.00
2023-03-10T02:11:13.855Z,7.10
2023-03-10T02:13:41.396Z,7.10
2023-03-10T02:16:09.232Z,7.20
2023-03-10T02:18:36.569Z,7.20
2023-03-10T02:21:31.588Z,7.30
2023-03-10T02:24:21.136Z,7.30
2023-03-10T02:27:05.995Z,7.30
2023-03-10T02:30:01.204Z,7.30
2023-03-10T02:32:36.043Z,7.30
2023-03-10T02:35:05.319Z,7.20
2023-03-10T02:37:35.005Z,7.10
2023-03-10T02:40:02.924Z,7.10
2023-03-10T02:42:36.214Z,7.00
2023-03-10T02:45:05.114Z,7.00
2023-03-10T02:47:32.607Z,6.90
2023-03-10T02:50:00.115Z,6.90
2023-03-10T02:52:36.923Z,6.90
2023-03-10T02:55:04.613Z,6.80
2023-03-10T02:57:32.127Z,6.70
2023-03-10T03:00:00.112Z,6.60
2023-03-10T03:02:27.425Z,6.60
2023-03-10T03:04:54.905Z,6.50
2023-03-10T03:07:22.242Z,6.60
2023-03-10T03:09:49.513Z,6.50
2023-03-10T03:12:16.882Z,6.50
2023-03-10T03:14:44.151Z,6.60
2023-03-10T03:17:11.587Z,6.60
2023-03-10T03:19:38.943Z,6.70
2023-03-10T03:22:06.607Z,6.70
2023-03-10T03:24:33.943Z,6.80
2023-03-10T03:27:01.252Z,6.80
2023-03-10T03:29:28.776Z,6.80
2023-03-10T03:31:56.215Z,6.80
2023-03-10T03:34:23.698Z,6.90
2023-03-10T03:36:51.094Z,6.90
2023-03-10T03:39:18.739Z,7.00
2023-03-10T03:41:46.388Z,7.00
2023-03-10T03:44:14.162Z,7.00
2023-03-10T03:46:41.401Z,7.00
2023-03-10T03:49:09.187Z,7.10
2023-03-10T03:51:37.223Z,7.00
2023-03-10T03:54:04.665Z,7.00
2023-03-10T03:56:31.926Z,7.10
2023-03-10T03:58:59.344Z,7.00
2023-03-10T04:01:26.792Z,7.10
2023-03-10T04:03:54.167Z,7.10
2023-03-10T04:06:21.561Z,7.10
2023-03-10T04:08:50.771Z,7.20
2023-03-10T04:11:18.199Z,7.20
2023-03-10T04:13:45.588Z,7.20
2023-03-10T04:16:13.590Z,7.20
2023-03-10T04:18:41.252Z,7.30
2023-03-10T04:21:08.669Z,7.30
2023-03-10T04:23:36.243Z,7.30
2023-03-10T04:26:07.941Z,7.30
2023-03-10T04:28:35.987Z,7.40
2023-03-10T04:31:16.474Z,7.40
2023-03-10T04:33:43.975Z,7.40
2023-03-10T04:36:12.155Z,7.40
2023-03-10T04:38:40.669Z,7.40
2023-03-10T04:41:10.108Z,7.40
2023-03-10T04:43:37.809Z,7.40
2023-03-10T04:46:06.151Z,7.40
2023-03-10T04:48:34.217Z,7.40
2023-03-10T04:51:10.325Z,7.40
2023-03-10T04:53:38.631Z,7.40
2023-03-10T04:56:09.524Z,7.40
2023-03-10T04:58:36.926Z,7.40
2023-03-10T05:01:09.758Z,7.40
2023-03-10T05:03:37.560Z,7.40
2023-03-10T05:06:05.849Z,7.40
2023-03-10T05:08:33.231Z,7.50
2023-03-10T05:11:00.634Z,7.50
2023-03-10T05:13:30.722Z,7.50
2023-03-10T05:15:58.995Z,7.60
2023-03-10T05:18:26.433Z,7.60
2023-03-10T05:20:57.878Z,7.60
2023-03-10T05:23:25.951Z,7.60
2023-03-10T05:25:53.510Z,7.70
2023-03-10T05:28:21.329Z,7.70
2023-03-10T05:30:48.625Z,7.70
2023-03-10T05:33:16.000Z,7.70
2023-03-10T05:35:43.610Z,7.80
2023-03-10T05:38:11.158Z,7.80
2023-03-10T05:40:40.421Z,7.90
2023-03-10T05:43:08.397Z,7.90
2023-03-10T05:45:35.645Z,7.90
2023-03-10T05:48:03.322Z,8.00
2023-03-10T05:50:30.858Z,7.90
2023-03-10T05:52:58.092Z,7.90
2023-03-10T05:55:25.480Z,7.90
2023-03-10T05:57:52.729Z,7.90
2023-03-10T06:00:20.903Z,8.00
2023-03-10T06:02:48.302Z,7.90
2023-03-10T06:05:15.747Z,8.00
2023-03-10T06:07:43.579Z,8.00
2023-03-10T06:10:11.253Z,8.10
2023-03-10T06:12:38.822Z,8.20
2023-03-10T06:15:06.988Z,8.20
2023-03-10T06:17:35.002Z,8.30
2023-03-10T06:20:02.573Z,8.30
2023-03-10T06:22:31.345Z,8.40
2023-03-10T06:24:59.123Z,8.50
2023-03-10T06:27:26.383Z,8.50
2023-03-10T06:29:53.932Z,8.50
2023-03-10T06:32:21.374Z,8.60
2023-03-10T06:34:48.770Z,8.60
2023-03-10T06:37:16.525Z,8.60
2023-03-10T06:39:43.908Z,8.70
2023-03-10T06:42:11.229Z,8.90
2023-03-10T06:44:38.545Z,8.90
2023-03-10T06:47:06.014Z,9.00
2023-03-10T06:49:34.702Z,9.00
2023-03-10T06:52:02.203Z,9.00
2023-03-10T06:54:29.466Z,9.10
2023-03-10T06:56:56.752Z,9.10
2023-03-10T06:59:24.491Z,9.10
2023-03-10T07:01:51.847Z,9.10
2023-03-10T07:04:19.308Z,9.20
2023-03-10T07:06:46.685Z,9.20
2023-03-10T07:09:14.113Z,9.20
2023-03-10T07:11:41.431Z,9.30
2023-03-10T07:14:08.771Z,9.40
2023-03-10T07:16:36.157Z,9.40
2023-03-10T07:19:03.593Z,9.40
2023-03-10T07:21:30.964Z,9.40
2023-03-10T07:23:59.686Z,9.40
2023-03-10T07:26:27.139Z,9.50
2023-03-10T07:28:54.653Z,9.50
2023-03-10T07:31:22.269Z,9.60
2023-03-10T07:33:50.204Z,9.60
2023-03-10T07:36:20.233Z,9.60
2023-03-10T07:38:48.168Z,9.70
2023-03-10T07:41:18.707Z,9.70
2023-03-10T07:43:46.433Z,9.80
2023-03-10T07:46:16.017Z,10.00
2023-03-10T07:48:44.710Z,10.20
2023-03-10T07:51:12.798Z,10.50
2023-03-10T07:53:40.149Z,10.70
2023-03-10T07:56:09.964Z,10.90
2023-03-10T07:58:38.007Z,11.00
2023-03-10T08:01:06.190Z,11.20
2023-03-10T08:03:34.672Z,11.30
2023-03-10T08:06:02.971Z,11.50
2023-03-10T08:08:30.365Z,11.70
2023-03-10T08:11:05.741Z,11.80
2023-03-10T08:13:33.607Z,11.90
2023-03-10T08:16:01.875Z,12.00
2023-03-10T08:18:31.046Z,12.10
2023-03-10T08:20:59.299Z,12.10
2023-03-10T08:23:27.032Z,12.10
2023-03-10T08:25:54.455Z,12.00
2023-03-10T08:28:21.870Z,12.00
2023-03-10T08:31:04.192Z,12.00
2023-03-10T08:33:33.495Z,12.00
2023-03-10T08:36:22.622Z,11.90
2023-03-10T08:38:52.022Z,11.90
2023-03-10T08:41:31.232Z,12.00
2023-03-10T08:43:59.970Z,11.90
2023-03-10T08:46:29.526Z,12.00
2023-03-10T08:48:57.396Z,12.00
2023-03-10T08:51:25.825Z,12.10
2023-03-10T08:53:53.900Z,12.10
2023-03-10T08:56:23.266Z,12.10
2023-03-10T08:58:51.019Z,12.20
2023-03-10T09:01:19.255Z,12.30
2023-03-10T09:03:46.780Z,12.40
2023-03-10T09:06:15.482Z,12.40
2023-03-10T09:08:43.833Z,12.40
2023-03-10T09:11:17.126Z,12.50
2023-03-10T09:13:44.487Z,12.60
2023-03-10T09:16:15.274Z,12.60
2023-03-10T09:18:42.891Z,12.60
2023-03-10T09:21:13.179Z,12.70
2023-03-10T09:23:44.044Z,12.80
2023-03-10T09:26:11.496Z,12.90
2023-03-10T09:28:39.103Z,13.00
2023-03-10T09:31:08.982Z,13.20
2023-03-10T09:33:37.073Z,13.30
2023-03-10T09:36:06.950Z,13.50
2023-03-10T09:38:35.420Z,13.70
2023-03-10T09:41:37.707Z,13.80
2023-03-10T09:44:23.173Z,13.80
2023-03-10T09:47:01.242Z,13.80
2023-03-10T09:49:47.495Z,13.80
2023-03-10T09:52:36.947Z,13.80
2023-03-10T09:55:07.451Z,13.90
2023-03-10T09:57:36.031Z,14.00
2023-03-10T10:00:11.204Z,14.10
2023-03-10T10:02:44.369Z,14.10
2023-03-10T10:05:34.420Z,14.10
2023-03-10T10:08:06.798Z,14.20
2023-03-10T10:10:37.546Z,14.20
2023-03-10T10:13:16.015Z,14.20
2023-03-10T10:15:49.214Z,14.30
2023-03-10T10:18:25.583Z,14.30
2023-03-10T10:21:42.877Z,14.30
2023-03-10T10:24:10.610Z,14.40
2023-03-10T10:26:38.668Z,14.60
2023-03-10T10:29:27.788Z,15.20
2023-03-10T10:32:07.005Z,15.80
2023-03-10T10:34:35.528Z,15.70
2023-03-10T10:37:03.335Z,15.30
2023-03-10T10:39:41.015Z,15.10
2023-03-10T10:42:25.592Z,14.90
2023-03-10T10:45:02.638Z,14.90
2023-03-10T10:47:57.563Z,14.90
2023-03-10T10:50:27.910Z,15.00
2023-03-10T10:53:34.608Z,15.20
2023-03-10T10:56:04.350Z,15.30
2023-03-10T10:58:37.088Z,15.30
2023-03-10T11:01:16.233Z,15.60
2023-03-10T11:03:46.364Z,15.80
2023-03-10T11:06:17.836Z,16.20
2023-03-10T11:08:51.447Z,16.50
2023-03-10T11:11:44.028Z,16.80
2023-03-10T11:14:17.177Z,17.20
2023-03-10T11:17:11.767Z,17.00
2023-03-10T11:19:53.563Z,16.70
2023-03-10T11:22:29.990Z,16.80
2023-03-10T11:25:15.834Z,17.10
2023-03-10T11:28:05.947Z,17.70
2023-03-10T11:30:39.109Z,17.90
2023-03-10T11:33:39.014Z,17.90
2023-03-10T11:36:24.284Z,17.50
2023-03-10T11:39:00.055Z,17.80
2023-03-10T11:41:31.529Z,17.60
2023-03-10T11:44:17.296Z,17.00
2023-03-10T11:47:17.336Z,16.50
2023-03-10T11:49:47.731Z,16.70
2023-03-10T11:52:19.513Z,17.10
2023-03-10T11:55:12.828Z,17.00
2023-03-10T11:57:47.985Z,16.70
2023-03-10T12:00:46.187Z,16.80
2023-03-10T12:03:41.326Z,16.90
2023-03-10T12:06:15.200Z,17.20
2023-03-10T12:08:43.037Z,18.20
2023-03-10T12:11:17.728Z,18.80
2023-03-10T12:13:52.797Z,19.10
2023-03-10T12:16:24.068Z,18.80
2023-03-10T12:18:51.604Z,18.70
2023-03-10T12:21:28.221Z,18.90
2023-03-10T12:23:58.858Z,19.10
2023-03-10T12:27:00.055Z,18.50
2023-03-10T12:29:27.597Z,18.90
2023-03-10T12:31:58.145Z,18.30
2023-03-10T12:34:29.677Z,17.50
2023-03-10T12:37:10.080Z,17.00
2023-03-10T12:39:42.572Z,16.70
2023-03-10T12:42:33.143Z,16.50
2023-03-10T12:45:21.556Z,16.20
2023-03-10T12:48:07.991Z,16.00
2023-03-10T12:50:53.179Z,16.00
2023-03-10T12:53:39.960Z,16.00
2023-03-10T12:56:15.767Z,16.00
2023-03-10T12:59:21.774Z,15.90
2023-03-10T13:01:55.925Z,16.00
2023-03-10T13:04:25.547Z,16.30
2023-03-10T13:07:04.525Z,16.60
2023-03-10T13:09:43.875Z,17.30
2023-03-10T13:12:36.901Z,17.80
2023-03-10T13:15:08.453Z,18.60
2023-03-10T13:17:35.720Z,19.50
2023-03-10T13:20:14.483Z,19.80
2023-03-10T13:22:51.993Z,19.80
2023-03-10T13:25:19.435Z,19.80
2023-03-10T13:27:47.336Z,20.70
2023-03-10T13:30:15.117Z,20.60
2023-03-10T13:32:43.147Z,20.00
2023-03-10T13:35:41.507Z,20.20
2023-03-10T13:38:24.937Z,20.20
2023-03-10T13:40:58.538Z,19.50
2023-03-10T13:43:45.537Z,19.50
2023-03-10T13:46:31.199Z,19.60
2023-03-10T13:49:04.476Z,19.60
2023-03-10T13:51:35.338Z,19.40
2023-03-10T13:54:36.284Z,19.10
2023-03-10T13:57:09.571Z,19.30
2023-03-10T13:59:38.011Z,19.80
2023-03-10T14:02:31.094Z,20.00
2023-03-10T14:05:01.287Z,19.60
2023-03-10T14:07:29.942Z,19.10
2023-03-10T14:10:06.112Z,19.00
2023-03-10T14:12:42.190Z,19.00
2023-03-10T14:15:15.821Z,18.70
2023-03-10T14:17:44.766Z,18.30
2023-03-10T14:20:13.596Z,17.90
2023-03-10T14:22:43.983Z,17.30
2023-03-10T14:25:17.529Z,17.00
2023-03-10T14:27:48.106Z,16.70
2023-03-10T14:30:28.946Z,16.60
2023-03-10T14:32:57.373Z,16.40
2023-03-10T14:35:25.942Z,16.30
2023-03-10T14:37:53.917Z,16.20
2023-03-10T14:40:23.681Z,16.10
2023-03-10T14:42:52.669Z,16.10
2023-03-10T14:45:27.916Z,16.10
2023-03-10T14:47:58.050Z,16.00
2023-03-10T14:50:27.244Z,16.00
2023-03-10T14:52:54.546Z,16.10
2023-03-10T14:55:22.242Z,16.20
2023-03-10T14:57:55.832Z,16.20
2023-03-10T15:00:24.081Z,16.20
2023-03-10T15:02:51.328Z,16.20
2023-03-10T15:05:23.680Z,16.20
2023-03-10T15:07:52.101Z,16.40
2023-03-10T15:10:21.661Z,16.60
2023-03-10T15:12:54.801Z,16.80
2023-03-10T15:15:24.792Z,16.80
2023-03-10T15:17:52.664Z,17.00
2023-03-10T15:20:22.680Z,17.00
2023-03-10T15:22:50.634Z,16.80
2023-03-10T15:25:21.660Z,16.60
2023-03-10T15:27:50.711Z,16.30
2023-03-10T15:30:38.525Z,16.10
2023-03-10T15:33:05.938Z,16.00
2023-03-10T15:35:33.761Z,16.00
2023-03-10T15:38:01.418Z,15.90
2023-03-10T15:40:31.051Z,15.80
2023-03-10T15:43:00.090Z,15.80
2023-03-10T15:45:29.785Z,15.70
2023-03-10T15:47:58.271Z,15.70
2023-03-10T15:50:26.648Z,15.50
2023-03-10T15:52:56.855Z,15.50
2023-03-10T15:55:25.301Z,15.40
2023-03-10T15:57:53.007Z,15.30
2023-03-10T16:00:22.498Z,15.20
2023-03-10T16:02:50.893Z,15.20
2023-03-10T16:05:19.201Z,15.10
2023-03-10T16:07:46.869Z,15.10
2023-03-10T16:10:17.278Z,15.00
2023-03-10T16:12:45.172Z,14.90
2023-03-10T16:15:15.341Z,14.90
2023-03-10T16:17:44.379Z,14.80
2023-03-10T16:20:17.790Z,14.70
2023-03-10T16:22:51.474Z,14.60
2023-03-10T16:25:21.672Z,14.50
2023-03-10T16:27:50.550Z,14.40
2023-03-10T16:30:19.052Z,14.30
2023-03-10T16:32:48.449Z,14.20
2023-03-10T16:35:16.820Z,14.20
2023-03-10T16:37:44.750Z,14.20
2023-03-10T16:40:12.830Z,14.20
2023-03-10T16:42:43.481Z,14.10
2023-03-10T16:45:11.194Z,14.00
2023-03-10T16:47:38.802Z,13.90
2023-03-10T16:50:06.421Z,13.90
2023-03-10T16:52:40.567Z,13.90
2023-03-10T16:55:09.656Z,13.90
2023-03-10T16:57:37.014Z,13.80
2023-03-10T17:00:06.040Z,13.70
2023-03-10T17:02:33.792Z,13.60
2023-03-10T17:05:01.325Z,13.50
2023-03-10T17:07:28.672Z,13.50
2023-03-10T17:09:56.278Z,13.40
2023-03-10T17:12:23.620Z,13.40
2023-03-10T17:14:51.165Z,13.30
2023-03-10T17:17:18.868Z,13.30
2023-03-10T17:19:46.257Z,13.20
2023-03-10T17:22:13.652Z,13.20
2023-03-10T17:24:40.922Z,13.20
2023-03-10T17:27:08.251Z,13.20
2023-03-10T17:29:35.908Z,13.20
2023-03-10T17:32:03.216Z,13.30
2023-03-10T17:34:30.809Z,13.30
2023-03-10T17:36:58.203Z,13.20
2023-03-10T17:39:27.842Z,13.30
2023-03-10T17:41:55.746Z,13.40
2023-03-10T17:44:24.024Z,13.40
2023-03-10T17:46:52.884Z,13.40
2023-03-10T17:49:20.275Z,13.30
2023-03-10T17:51:47.807Z,13.10
2023-03-10T17:54:20.606Z,12.90
2023-03-10T17:56:49.322Z,12.60
2023-03-10T17:59:19.644Z,12.30
2023-03-10T18:01:47.290Z,12.20
2023-03-10T18:04:15.629Z,12.10
2023-03-10T18:06:43.144Z,11.90
2023-03-10T18:09:13.946Z,11.90
2023-03-10T18:11:41.444Z,11.80
2023-03-10T18:14:08.844Z,11.70
2023-03-10T18:16:39.306Z,11.70
2023-03-10T18:19:10.490Z,11.70
2023-03-10T18:21:42.430Z,11.60
2023-03-10T18:24:12.810Z,11.50
2023-03-10T18:26:43.578Z,11.40
2023-03-10T18:29:12.143Z,11.30
2023-03-10T18:31:39.678Z,11.20
2023-03-10T18:34:07.062Z,11.30
2023-03-10T18:36:34.515Z,11.30
2023-03-10T18:39:04.189Z,11.20
2023-03-10T18:41:32.988Z,11.20
2023-03-10T18:44:01.003Z,11.10
2023-03-10T18:46:28.551Z,11.10
2023-03-10T18:48:56.322Z,11.30
2023-03-10T18:51:28.347Z,11.20
2023-03-10T18:53:56.495Z,11.30
2023-03-10T18:56:26.482Z,11.30
2023-03-10T18:58:53.821Z,11.40
2023-03-10T19:01:21.745Z,11.30
2023-03-10T19:03:49.330Z,11.40
2023-03-10T19:06:17.279Z,11.40
2023-03-10T19:08:44.675Z,11.40
2023-03-10T19:11:12.417Z,11.50
2023-03-10T19:13:40.814Z,11.40
2023-03-10T19:16:10.062Z,11.40
2023-03-10T19:18:37.874Z,11.30
2023-03-10T19:21:05.554Z,11.30
2023-03-10T19:23:35.164Z,11.20
2023-03-10T19:26:03.430Z,11.20
2023-03-10T19:28:31.939Z,11.10
2023-03-10T19:30:59.569Z,11.10
2023-03-10T19:33:27.134Z,11.20
2023-03-10T19:36:02.496Z,11.20
2023-03-10T19:38:30.333Z,11.00
2023-03-10T19:40:58.785Z,10.90
2023-03-10T19:43:26.120Z,10.80
2023-03-10T19:46:00.174Z,10.80
2023-03-10T19:48:28.141Z,10.80
2023-03-10T19:50:56.811Z,10.90
2023-03-10T19:53:26.223Z,10.90
2023-03-10T19:55:58.696Z,10.90
2023-03-10T19:58:26.598Z,10.90
2023-03-10T20:00:58.024Z,11.00
2023-03-10T20:03:30.350Z,11.00
2023-03-10T20:05:57.734Z,11.00
2023-03-10T20:08:25.340Z,11.00
2023-03-10T20:10:52.757Z,11.00
2023-03-10T20:13:20.176Z,11.00
2023-03-10T20:15:47.659Z,11.10
2023-03-10T20:18:18.638Z,11.20
2023-03-10T20:20:45.916Z,11.20
2023-03-10T20:23:14.001Z,11.20
2023-03-10T20:25:41.879Z,11.20
2023-03-10T20:28:10.583Z,11.10
2023-03-10T20:30:37.960Z,11.10
2023-03-10T20:33:05.350Z,11.00
2023-03-10T20:35:33.767Z,11.00
2023-03-10T20:38:02.364Z,10.90
2023-03-10T20:40:29.694Z,10.90
2023-03-10T20:43:00.104Z,10.90
2023-03-10T20:45:27.648Z,10.90
2023-03-10T20:47:55.187Z,11.00
2023-03-10T20:50:23.463Z,11.00
2023-03-10T20:52:51.630Z,10.90
2023-03-10T20:55:25.589Z,10.90
2023-03-10T20:57:55.289Z,10.90
2023-03-10T21:00:25.547Z,10.80
2023-03-10T21:02:56.146Z,10.70
2023-03-10T21:05:28.730Z,10.60
2023-03-10T21:07:56.703Z,10.60
2023-03-10T21:10:26.874Z,10.50
2023-03-10T21:12:54.453Z,10.50
2023-03-10T21:15:24.021Z,10.40
2023-03-10T21:17:51.492Z,10.40
2023-03-10T21:20:22.117Z,10.40
2023-03-10T21:22:52.668Z,10.40
2023-03-10T21:25:23.469Z,10.40
2023-03-10T21:27:53.728Z,10.60
2023-03-10T21:30:21.984Z,10.70
2023-03-10T21:32:49.396Z,10.70
2023-03-10T21:35:16.957Z,10.80
2023-03-10T21:37:47.174Z,10.90
2023-03-10T21:40:18.360Z,10.80
2023-03-10T21:42:46.536Z,10.90
2023-03-10T21:45:20.861Z,10.90
2023-03-10T21:47:48.319Z,10.90
2023-03-10T21:50:16.967Z,10.80
2023-03-10T21:52:44.620Z,10.90
2023-03-10T21:55:30.050Z,10.80
2023-03-10T21:57:57.714Z,10.80
2023-03-10T22:00:25.246Z,10.80
2023-03-10T22:02:53.555Z,10.90
2023-03-10T22:05:21.738Z,10.80
2023-03-10T22:07:49.385Z,10.80
2023-03-10T22:10:17.710Z,10.80
2023-03-10T22:12:45.645Z,10.80
2023-03-10T22:15:18.009Z,10.80
2023-03-10T22:17:45.564Z,10.80
2023-03-10T22:20:18.721Z,10.70
2023-03-10T22:22:46.024Z,10.70
2023-03-10T22:25:14.814Z,10.60
2023-03-10T22:27:43.494Z,10.60
2023-03-10T22:30:13.601Z,10.60
2023-03-10T22:32:41.433Z,10.50
2023-03-10T22:35:10.232Z,10.50
2023-03-10T22:37:38.576Z,10.50
2023-03-10T22:40:10.330Z,10.40
2023-03-10T22:42:39.185Z,10.40
2023-03-10T22:45:20.584Z,10.40
2023-03-10T22:47:49.126Z,10.30
2023-03-10T22:50:22.525Z,10.30
2023-03-10T22:52:50.310Z,10.20
2023-03-10T22:55:24.865Z,10.20
2023-03-10T22:57:53.461Z,10.20
2023-03-10T23:00:22.502Z,10.20
2023-03-10T23:02:52.470Z,10.10
2023-03-10T23:05:20.580Z,10.10
2023-03-10T23:07:49.093Z,10.10
2023-03-10T23:10:26.542Z,10.10
2023-03-10T23:12:54.741Z,10.00
2023-03-10T23:15:27.827Z,9.90
2023-03-10T23:17:56.643Z,9.90
2023-03-10T23:20:27.644Z,9.90
2023-03-10T23:23:00.419Z,9.90
2023-03-10T23:25:29.209Z,9.70
2023-03-10T23:27:56.965Z,9.80
2023-03-10T23:30:25.254Z,9.80
2023-03-10T23:32:53.524Z,9.80
2023-03-10T23:35:28.271Z,9.80
2023-03-10T23:37:55.922Z,9.70
2023-03-10T23:40:27.416Z,9.80
2023-03-10T23:42:56.147Z,9.70
2023-03-10T23:45:25.859Z,9.70
2023-03-10T23:47:55.898Z,9.70
2023-03-10T23:50:33.157Z,9.70
2023-03-10T23:53:01.437Z,9.70
2023-03-10T23:55:31.871Z,9.70
2023-03-10T23:57:59.334Z,9.70
